createdAt,value
2023-04-11T00:00:24.452Z,2.41
2023-04-11T00:02:52.417Z,2.51
2023-04-11T00:05:19.288Z,2.56
2023-04-11T00:07:46.126Z,2.40
2023-04-11T00:10:13.008Z,2.41
2023-04-11T00:12:39.818Z,2.28
2023-04-11T00:15:08.191Z,2.17
2023-04-11T00:17:37.877Z,2.12
2023-04-11T00:20:07.891Z,2.14
2023-04-11T00:22:39.072Z,2.18
2023-04-11T00:25:06.798Z,2.21
2023-04-11T00:27:33.444Z,2.21
2023-04-11T00:30:00.232Z,2.28
2023-04-11T00:32:27.226Z,2.22
2023-04-11T00:34:54.056Z,2.26
2023-04-11T00:37:21.657Z,2.19
2023-04-11T00:39:53.161Z,2.19
2023-04-11T00:42:20.108Z,2.11
2023-04-11T00:44:47.069Z,2.15
2023-04-11T00:47:14.048Z,2.17
2023-04-11T00:49:41.222Z,2.16
2023-04-11T00:52:08.496Z,2.08
2023-04-11T00:54:35.368Z,2.06
2023-04-11T00:57:04.315Z,2.01
2023-04-11T00:59:32.128Z,1.94
2023-04-11T01:02:00.061Z,2.08
2023-04-11T01:04:27.070Z,2.07
2023-04-11T01:06:57.129Z,2.17
2023-04-11T01:09:26.235Z,2.19
2023-04-11T01:11:53.368Z,2.20
2023-04-11T01:14:20.860Z,2.14
2023-04-11T01:16:48.628Z,2.08
2023-04-11T01:19:20.069Z,2.02
2023-04-11T01:21:51.071Z,1.96
2023-04-11T01:24:18.310Z,2.03
2023-04-11T01:26:45.223Z,2.04
2023-04-11T01:29:11.954Z,2.06
2023-04-11T01:31:38.733Z,2.00
2023-04-11T01:34:05.765Z,1.99
2023-04-11T01:36:32.846Z,2.01
2023-04-11T01:38:59.822Z,1.77
2023-04-11T01:41:27.219Z,1.82
2023-04-11T01:43:54.377Z,1.59
2023-04-11T01:46:22.000Z,1.73
2023-04-11T01:48:50.675Z,1.81
2023-04-11T01:51:17.422Z,1.82
2023-04-11T01:53:47.382Z,1.84
2023-04-11T01:56:14.947Z,1.86
2023-04-11T01:58:41.744Z,1.85
2023-04-11T02:01:08.545Z,1.89
2023-04-11T02:03:37.139Z,1.90
2023-04-11T02:06:04.192Z,1.82
2023-04-11T02:08:31.192Z,1.82
2023-04-11T02:10:57.850Z,1.80
2023-04-11T02:13:24.674Z,1.68
2023-04-11T02:15:51.388Z,1.70
2023-04-11T02:18:18.130Z,1.71
2023-04-11T02:20:44.833Z,1.46
2023-04-11T02:23:12.918Z,1.66
2023-04-11T02:25:39.703Z,1.66
2023-04-11T02:28:08.126Z,1.68
2023-04-11T02:30:35.104Z,1.73
2023-04-11T02:33:02.169Z,1.78
2023-04-11T02:35:28.863Z,1.68
2023-04-11T02:37:55.617Z,1.61
2023-04-11T02:40:22.414Z,1.66
2023-04-11T02:42:49.129Z,1.79
2023-04-11T02:45:16.096Z,1.63
2023-04-11T02:47:42.913Z,1.85
2023-04-11T02:50:10.175Z,1.89
2023-04-11T02:52:39.440Z,1.69
2023-04-11T02:55:06.425Z,1.84
2023-04-11T02:57:33.095Z,1.89
2023-04-11T02:59:59.825Z,1.92
2023-04-11T03:02:26.756Z,1.99
2023-04-11T03:04:53.607Z,1.91
2023-04-11T03:07:20.336Z,1.89
2023-04-11T03:09:47.147Z,1.86
2023-04-11T03:12:13.835Z,1.95
2023-04-11T03:14:40.649Z,1.74
2023-04-11T03:17:07.358Z,1.92
2023-04-11T03:19:34.125Z,1.98
2023-04-11T03:22:01.739Z,1.92
2023-04-11T03:24:28.469Z,1.90
2023-04-11T03:26:55.184Z,1.92
2023-04-11T03:29:21.925Z,1.85
2023-04-11T03:31:48.869Z,1.79
2023-04-11T03:34:16.217Z,1.69
2023-04-11T03:36:42.948Z,1.62
2023-04-11T03:39:10.061Z,1.61
2023-04-11T03:41:36.827Z,1.43
2023-04-11T03:44:03.676Z,1.46
2023-04-11T03:46:30.590Z,1.47
2023-04-11T03:48:57.669Z,1.59
2023-04-11T03:51:24.580Z,1.61
2023-04-11T03:53:52.762Z,1.57
2023-04-11T03:56:19.556Z,1.66
2023-04-11T03:58:46.318Z,1.79
2023-04-11T04:01:13.064Z,1.84
2023-04-11T04:03:40.118Z,1.64
2023-04-11T04:06:07.256Z,1.65
2023-04-11T04:08:34.094Z,1.79
2023-04-11T04:11:00.759Z,1.79
2023-04-11T04:13:27.689Z,1.69
2023-04-11T04:15:54.578Z,1.67
2023-04-11T04:18:21.285Z,1.83
2023-04-11T04:20:48.017Z,1.87
2023-04-11T04:23:18.041Z,1.87
2023-04-11T04:25:48.384Z,1.86
2023-04-11T04:28:17.919Z,1.94
2023-04-11T04:30:50.064Z,1.92
2023-04-11T04:33:18.908Z,1.90
2023-04-11T04:35:45.679Z,1.94
2023-04-11T04:38:17.821Z,1.97
2023-04-11T04:40:44.829Z,2.03
2023-04-11T04:43:18.557Z,1.95
2023-04-11T04:45:45.910Z,1.90
2023-04-11T04:48:15.702Z,2.04
2023-04-11T04:50:42.413Z,2.26
2023-04-11T04:53:09.157Z,2.07
2023-04-11T04:55:35.870Z,1.98
2023-04-11T04:58:02.710Z,1.98
2023-04-11T05:00:29.420Z,2.00
2023-04-11T05:02:56.356Z,2.12
2023-04-11T05:05:23.291Z,2.06
2023-04-11T05:07:50.245Z,2.19
2023-04-11T05:10:16.867Z,2.08
2023-04-11T05:12:43.603Z,2.06
2023-04-11T05:15:11.835Z,2.21
2023-04-11T05:17:38.878Z,2.21
2023-04-11T05:20:07.942Z,2.14
2023-04-11T05:22:34.899Z,2.23
2023-04-11T05:25:02.578Z,2.36
2023-04-11T05:27:29.371Z,2.45
2023-04-11T05:29:56.072Z,2.45
2023-04-11T05:32:22.932Z,2.52
2023-04-11T05:34:55.970Z,2.51
2023-04-11T05:37:25.091Z,2.50
2023-04-11T05:39:52.666Z,2.65
2023-04-11T05:42:19.474Z,2.68
2023-04-11T05:44:46.164Z,2.76
2023-04-11T05:47:13.055Z,2.83
2023-04-11T05:49:39.829Z,2.85
2023-04-11T05:52:06.575Z,2.83
2023-04-11T05:54:34.903Z,2.59
2023-04-11T05:57:02.379Z,2.60
2023-04-11T05:59:32.719Z,2.68
2023-04-11T06:01:59.710Z,2.87
2023-04-11T06:04:26.945Z,2.77
2023-04-11T06:06:54.291Z,2.89
2023-04-11T06:09:21.001Z,2.90
2023-04-11T06:11:47.816Z,2.82
2023-04-11T06:14:14.570Z,2.78
2023-04-11T06:16:41.437Z,2.73
2023-04-11T06:19:08.229Z,2.81
2023-04-11T06:21:34.998Z,2.88
2023-04-11T06:24:05.499Z,2.93
2023-04-11T06:26:32.271Z,2.96
2023-04-11T06:28:58.975Z,2.85
2023-04-11T06:31:26.313Z,2.84
2023-04-11T06:33:53.271Z,2.84
2023-04-11T06:36:20.032Z,2.90
2023-04-11T06:38:46.753Z,3.12
2023-04-11T06:41:13.491Z,3.17
2023-04-11T06:43:40.492Z,3.24
2023-04-11T06:46:08.457Z,3.30
2023-04-11T06:48:35.433Z,3.15
2023-04-11T06:51:02.214Z,3.15
2023-04-11T06:53:28.941Z,3.35
2023-04-11T06:55:55.805Z,3.25
2023-04-11T06:58:22.655Z,3.31
2023-04-11T07:00:49.416Z,3.38
2023-04-11T07:03:16.248Z,3.44
2023-04-11T07:05:43.262Z,3.55
2023-04-11T07:08:10.182Z,3.55
2023-04-11T07:10:36.855Z,3.67
2023-04-11T07:13:03.594Z,3.61
2023-04-11T07:15:30.312Z,3.56
2023-04-11T07:17:56.998Z,3.65
2023-04-11T07:20:23.760Z,3.76
2023-04-11T07:22:50.559Z,3.85
2023-04-11T07:25:17.312Z,3.88
2023-04-11T07:27:46.580Z,3.85
2023-04-11T07:30:13.839Z,3.86
2023-04-11T07:32:40.680Z,3.89
2023-04-11T07:35:08.170Z,3.94
2023-04-11T07:37:35.730Z,4.06
2023-04-11T07:40:06.408Z,4.03
2023-04-11T07:42:33.213Z,4.14
2023-04-11T07:44:59.892Z,4.30
2023-04-11T07:47:26.684Z,4.21
2023-04-11T07:49:53.461Z,4.26
2023-04-11T07:52:20.203Z,4.33
2023-04-11T07:54:46.888Z,4.40
2023-04-11T07:57:13.640Z,4.53
2023-04-11T07:59:40.328Z,4.66
2023-04-11T08:02:08.292Z,4.65
2023-04-11T08:04:37.180Z,4.75
2023-04-11T08:07:04.243Z,4.69
2023-04-11T08:09:30.907Z,4.83
2023-04-11T08:11:58.305Z,4.82
2023-04-11T08:14:25.053Z,4.80
2023-04-11T08:16:53.161Z,4.95
2023-04-11T08:19:20.200Z,5.03
2023-04-11T08:21:47.006Z,5.04
2023-04-11T08:24:13.718Z,5.18
2023-04-11T08:26:40.484Z,5.36
2023-04-11T08:29:11.377Z,5.26
2023-04-11T08:31:45.547Z,5.43
2023-04-11T08:34:12.681Z,5.52
2023-04-11T08:36:39.441Z,5.49
2023-04-11T08:39:06.818Z,5.49
2023-04-11T08:41:33.802Z,5.56
2023-04-11T08:44:00.843Z,5.67
2023-04-11T08:46:28.378Z,5.47
2023-04-11T08:48:55.209Z,5.48
2023-04-11T08:51:27.054Z,5.64
2023-04-11T08:53:54.712Z,5.68
2023-04-11T08:56:21.660Z,5.70
2023-04-11T08:58:48.570Z,5.91
2023-04-11T09:01:28.952Z,5.94
2023-04-11T09:03:56.936Z,5.86
2023-04-11T09:06:24.098Z,6.01
2023-04-11T09:08:51.028Z,6.29
2023-04-11T09:11:18.760Z,6.27
2023-04-11T09:13:45.563Z,6.07
2023-04-11T09:16:13.905Z,6.50
2023-04-11T09:18:45.128Z,6.66
2023-04-11T09:21:15.865Z,6.73
2023-04-11T09:23:43.061Z,6.64
2023-04-11T09:26:11.918Z,6.63
2023-04-11T09:28:52.542Z,6.62
2023-04-11T09:31:20.164Z,6.52
2023-04-11T09:33:54.940Z,6.58
2023-04-11T09:36:23.993Z,6.63
2023-04-11T09:38:51.556Z,7.01
2023-04-11T09:41:33.188Z,6.72
2023-04-11T09:44:00.976Z,6.82
2023-04-11T09:46:28.087Z,7.18
2023-04-11T09:48:55.352Z,7.22
2023-04-11T09:53:52.804Z,7.88
2023-04-11T09:56:20.078Z,8.05
2023-04-11T09:58:47.809Z,7.72
2023-04-11T10:01:15.951Z,8.08
2023-04-11T10:03:43.046Z,8.40
2023-04-11T10:06:14.272Z,8.36
2023-04-11T10:08:41.952Z,8.36
2023-04-11T10:11:09.823Z,9.07
2023-04-11T10:13:47.404Z,9.44
2023-04-11T10:16:15.927Z,9.30
2023-04-11T10:18:54.922Z,9.48
2023-04-11T10:21:27.738Z,9.33
2023-04-11T10:24:16.684Z,8.90
2023-04-11T10:27:00.462Z,8.62
2023-04-11T10:29:40.969Z,8.85
2023-04-11T10:32:22.565Z,8.68
2023-04-11T10:34:52.281Z,8.70
2023-04-11T10:37:21.578Z,8.87
2023-04-11T10:39:48.244Z,9.07
2023-04-11T10:42:31.725Z,9.00
2023-04-11T10:45:39.876Z,9.33
2023-04-11T10:48:10.614Z,9.54
2023-04-11T10:50:40.998Z,9.60
2023-04-11T10:53:11.224Z,9.74
2023-04-11T10:55:48.805Z,9.51
2023-04-11T10:58:17.228Z,9.65
2023-04-11T11:00:46.812Z,9.43
2023-04-11T11:03:25.654Z,9.51
2023-04-11T11:05:59.551Z,9.65
2023-04-11T11:08:33.762Z,9.67
2023-04-11T11:11:02.005Z,9.71
2023-04-11T11:13:45.689Z,9.93
2023-04-11T11:16:17.378Z,9.90
2023-04-11T11:18:52.877Z,9.76
2023-04-11T11:21:27.631Z,9.86
2023-04-11T11:24:00.265Z,9.44
2023-04-11T11:26:57.481Z,9.50
2023-04-11T11:29:35.795Z,9.60
2023-04-11T11:32:06.012Z,9.63
2023-04-11T11:34:34.485Z,9.79
2023-04-11T11:37:04.762Z,9.83
2023-04-11T11:39:32.424Z,9.89
2023-04-11T11:41:59.382Z,9.76
2023-04-11T11:44:30.933Z,9.83
2023-04-11T11:47:09.238Z,9.97
2023-04-11T11:49:50.147Z,10.00
2023-04-11T11:52:36.237Z,9.99
2023-04-11T11:55:11.442Z,10.02
2023-04-11T11:57:44.710Z,10.15
2023-04-11T12:00:12.188Z,10.24
2023-04-11T12:02:40.159Z,10.35
2023-04-11T12:05:07.629Z,10.30
2023-04-11T12:07:37.383Z,10.34
2023-04-11T12:10:09.369Z,10.45
2023-04-11T12:12:41.171Z,10.40
2023-04-11T12:15:12.339Z,10.45
2023-04-11T12:17:39.769Z,10.37
2023-04-11T12:20:10.828Z,10.45
2023-04-11T12:22:38.389Z,10.38
2023-04-11T12:25:13.061Z,10.49
2023-04-11T12:27:42.358Z,10.68
2023-04-11T12:30:11.059Z,10.76
2023-04-11T12:32:38.137Z,10.69
2023-04-11T12:35:06.385Z,10.62
2023-04-11T12:37:33.800Z,10.61
2023-04-11T12:40:00.969Z,10.69
2023-04-11T12:42:27.843Z,10.68
2023-04-11T12:44:54.732Z,10.64
2023-04-11T12:47:21.516Z,10.50
2023-04-11T12:49:48.308Z,10.45
2023-04-11T12:52:15.001Z,10.35
2023-04-11T12:54:41.723Z,10.51
2023-04-11T12:57:08.522Z,10.33
2023-04-11T12:59:35.211Z,10.23
2023-04-11T13:02:02.473Z,10.12
2023-04-11T13:04:29.355Z,10.03
2023-04-11T13:07:00.926Z,9.99
2023-04-11T13:09:34.515Z,9.89
2023-04-11T13:12:04.327Z,9.83
2023-04-11T13:14:31.193Z,9.80
2023-04-11T13:16:57.941Z,9.81
2023-04-11T13:19:24.867Z,9.67
2023-04-11T13:21:51.725Z,9.61
2023-04-11T13:24:18.484Z,9.48
2023-04-11T13:26:45.913Z,9.46
2023-04-11T13:29:12.677Z,9.42
2023-04-11T13:31:39.458Z,9.30
2023-04-11T13:34:07.579Z,9.23
2023-04-11T13:36:34.297Z,9.29
2023-04-11T13:39:01.018Z,9.20
2023-04-11T13:41:27.785Z,9.25
2023-04-11T13:43:54.679Z,9.31
2023-04-11T13:46:21.939Z,9.40
2023-04-11T13:48:48.955Z,9.56
2023-04-11T13:51:15.637Z,9.51
2023-04-11T13:53:42.392Z,9.31
2023-04-11T13:56:09.219Z,9.36
2023-04-11T13:58:36.979Z,9.27
2023-04-11T14:01:04.369Z,9.31
2023-04-11T14:03:33.725Z,9.14
2023-04-11T14:06:01.315Z,9.08
2023-04-11T14:08:29.092Z,9.16
2023-04-11T14:10:56.205Z,9.08
2023-04-11T14:13:22.964Z,8.98
2023-04-11T14:16:04.844Z,8.83
2023-04-11T14:18:34.552Z,8.88
2023-04-11T14:21:02.010Z,8.91
2023-04-11T14:23:29.512Z,8.83
2023-04-11T14:25:56.873Z,8.96
2023-04-11T14:28:26.540Z,8.80
2023-04-11T14:30:53.846Z,8.72
2023-04-11T14:33:20.943Z,8.66
2023-04-11T14:35:47.692Z,8.74
2023-04-11T14:38:16.055Z,8.62
2023-04-11T14:40:44.102Z,8.60
2023-04-11T14:43:11.384Z,8.41
2023-04-11T14:45:38.230Z,8.33
2023-04-11T14:48:05.556Z,8.34
2023-04-11T14:50:32.556Z,8.20
2023-04-11T14:52:59.546Z,8.39
2023-04-11T14:55:26.237Z,8.38
2023-04-11T14:57:55.151Z,8.42
2023-04-11T15:00:23.057Z,8.50
2023-04-11T15:02:52.092Z,8.42
2023-04-11T15:05:19.918Z,8.53
2023-04-11T15:07:48.203Z,8.73
2023-04-11T15:10:16.570Z,8.60
2023-04-11T15:12:43.284Z,8.61
2023-04-11T15:15:11.181Z,8.66
2023-04-11T15:17:43.168Z,8.59
2023-04-11T15:20:11.540Z,8.52
2023-04-11T15:22:46.641Z,8.53
2023-04-11T15:25:16.798Z,8.53
2023-04-11T15:27:44.057Z,8.65
2023-04-11T15:30:11.502Z,8.54
2023-04-11T15:32:44.383Z,8.64
2023-04-11T15:35:11.309Z,8.61
2023-04-11T15:37:38.096Z,8.54
2023-04-11T15:40:09.602Z,8.52
2023-04-11T15:42:37.646Z,8.67
2023-04-11T15:45:05.014Z,8.73
2023-04-11T15:47:31.799Z,8.86
2023-04-11T15:50:01.890Z,8.77
2023-04-11T15:52:28.607Z,8.80
2023-04-11T15:54:55.318Z,8.99
2023-04-11T15:57:22.017Z,8.86
2023-04-11T15:59:48.883Z,8.85
2023-04-11T16:02:15.872Z,8.88
2023-04-11T16:04:46.362Z,8.83
2023-04-11T16:07:18.633Z,8.84
2023-04-11T16:09:45.803Z,8.82
2023-04-11T16:12:12.719Z,8.98
2023-04-11T16:14:39.532Z,8.84
2023-04-11T16:17:07.182Z,8.91
2023-04-11T16:19:34.135Z,8.73
2023-04-11T16:22:01.147Z,8.65
2023-04-11T16:24:31.587Z,8.72
2023-04-11T16:26:58.496Z,8.79
2023-04-11T16:29:25.505Z,8.76
2023-04-11T16:31:52.558Z,8.63
2023-04-11T16:34:19.374Z,8.60
2023-04-11T16:36:46.106Z,8.44
2023-04-11T16:39:12.945Z,8.50
2023-04-11T16:41:39.696Z,8.55
2023-04-11T16:44:11.379Z,8.44
2023-04-11T16:46:39.618Z,8.51
2023-04-11T16:49:06.602Z,8.57
2023-04-11T16:51:34.406Z,8.51
2023-04-11T16:54:03.294Z,8.40
2023-04-11T16:56:30.190Z,8.44
2023-04-11T16:58:57.066Z,8.43
2023-04-11T17:01:23.789Z,8.32
2023-04-11T17:03:52.471Z,8.38
2023-04-11T17:06:19.932Z,8.23
2023-04-11T17:08:47.774Z,8.28
2023-04-11T17:11:14.745Z,8.16
2023-04-11T17:13:45.106Z,8.13
2023-04-11T17:16:12.200Z,8.16
2023-04-11T17:18:40.325Z,8.09
2023-04-11T17:21:07.531Z,8.10
2023-04-11T17:23:42.317Z,8.15
2023-04-11T17:26:10.882Z,8.24
2023-04-11T17:28:38.609Z,8.28
2023-04-11T17:31:13.185Z,8.13
2023-04-11T17:33:40.553Z,8.15
2023-04-11T17:36:08.286Z,8.03
2023-04-11T17:38:36.680Z,7.94
2023-04-11T17:41:13.545Z,7.86
2023-04-11T17:43:42.118Z,7.94
2023-04-11T17:46:09.198Z,7.80
2023-04-11T17:48:36.536Z,7.58
2023-04-11T17:51:06.906Z,7.45
2023-04-11T17:53:33.871Z,7.23
2023-04-11T17:56:04.873Z,7.08
2023-04-11T17:58:32.008Z,6.99
2023-04-11T18:00:59.031Z,6.91
2023-04-11T18:03:26.316Z,6.91
2023-04-11T18:05:54.742Z,6.81
2023-04-11T18:08:29.306Z,7.12
2023-04-11T18:11:04.406Z,6.97
2023-04-11T18:13:31.770Z,6.65
2023-04-11T18:15:58.694Z,6.28
2023-04-11T18:18:25.682Z,6.12
2023-04-11T18:20:52.557Z,6.29
2023-04-11T18:23:19.335Z,6.10
2023-04-11T18:25:46.186Z,6.06
2023-04-11T18:28:12.903Z,5.93
2023-04-11T18:30:39.733Z,5.85
2023-04-11T18:33:06.531Z,5.93
2023-04-11T18:35:33.397Z,5.83
2023-04-11T18:38:00.369Z,5.82
2023-04-11T18:40:27.860Z,5.75
2023-04-11T18:42:56.283Z,5.76
2023-04-11T18:45:24.053Z,5.64
2023-04-11T18:47:51.186Z,5.50
2023-04-11T18:50:19.053Z,5.60
2023-04-11T18:52:47.183Z,5.74
2023-04-11T18:55:16.502Z,5.79
2023-04-11T18:57:47.562Z,5.83
2023-04-11T19:00:18.447Z,5.84
2023-04-11T19:02:47.060Z,5.90
2023-04-11T19:05:14.638Z,5.88
2023-04-11T19:07:43.389Z,5.92
2023-04-11T19:10:11.507Z,5.98
2023-04-11T19:12:38.579Z,5.89
2023-04-11T19:15:08.134Z,5.89
2023-04-11T19:17:39.065Z,5.94
2023-04-11T19:20:13.218Z,6.00
2023-04-11T19:22:43.424Z,6.01
2023-04-11T19:25:11.323Z,5.99
2023-04-11T19:27:42.634Z,5.90
2023-04-11T19:30:10.857Z,5.88
2023-04-11T19:32:40.630Z,5.97
2023-04-11T19:35:10.345Z,6.07
2023-04-11T19:37:39.439Z,6.24
2023-04-11T19:40:13.543Z,6.41
2023-04-11T19:42:45.611Z,6.41
2023-04-11T19:45:17.513Z,6.20
2023-04-11T19:47:49.098Z,6.02
2023-04-11T19:50:18.227Z,5.95
2023-04-11T19:52:47.520Z,6.25
2023-04-11T19:55:14.418Z,6.35
2023-04-11T19:57:45.686Z,6.52
2023-04-11T20:00:14.779Z,6.55
2023-04-11T20:02:48.157Z,6.46
2023-04-11T20:05:20.595Z,6.43
2023-04-11T20:07:49.951Z,6.54
2023-04-11T20:10:17.916Z,6.54
2023-04-11T20:12:46.092Z,6.45
2023-04-11T20:15:13.931Z,6.43
2023-04-11T20:17:45.811Z,6.43
2023-04-11T20:20:14.093Z,6.32
2023-04-11T20:22:41.071Z,6.26
2023-04-11T20:25:13.990Z,6.26
2023-04-11T20:27:43.331Z,6.25
2023-04-11T20:30:15.648Z,6.22
2023-04-11T20:32:43.489Z,6.08
2023-04-11T20:35:15.335Z,5.92
2023-04-11T20:37:46.324Z,5.96
2023-04-11T20:40:15.766Z,5.89
2023-04-11T20:42:47.437Z,5.87
2023-04-11T20:45:18.376Z,5.82
2023-04-11T20:47:46.720Z,5.83
2023-04-11T20:50:14.621Z,5.75
2023-04-11T20:52:44.518Z,5.74
2023-04-11T20:55:11.890Z,5.74
2023-04-11T20:57:39.749Z,5.73
2023-04-11T21:00:15.596Z,5.65
2023-04-11T21:02:44.526Z,5.64
2023-04-11T21:05:12.839Z,5.59
2023-04-11T21:07:41.691Z,5.43
2023-04-11T21:10:08.986Z,5.56
2023-04-11T21:12:35.972Z,5.50
2023-04-11T21:15:03.753Z,5.48
2023-04-11T21:17:33.916Z,5.45
2023-04-11T21:20:01.736Z,5.50
2023-04-11T21:22:28.536Z,5.39
2023-04-11T21:24:55.154Z,5.36
2023-04-11T21:27:22.041Z,5.26
2023-04-11T21:29:48.677Z,5.32
2023-04-11T21:32:15.550Z,5.28
2023-04-11T21:34:42.437Z,5.32
2023-04-11T21:37:09.055Z,5.38
2023-04-11T21:39:35.665Z,5.41
2023-04-11T21:42:02.462Z,5.45
2023-04-11T21:44:29.468Z,5.35
2023-04-11T21:46:56.066Z,5.42
2023-04-11T21:49:22.732Z,5.40
2023-04-11T21:51:49.320Z,5.27
2023-04-11T21:54:16.485Z,5.23
2023-04-11T21:56:44.693Z,5.16
2023-04-11T21:59:11.285Z,5.16
2023-04-11T22:01:38.008Z,5.20
2023-04-11T22:04:05.108Z,5.18
2023-04-11T22:06:32.505Z,5.17
2023-04-11T22:09:01.420Z,5.15
2023-04-11T22:11:28.135Z,5.12
2023-04-11T22:13:55.089Z,5.17
2023-04-11T22:16:30.326Z,5.10
2023-04-11T22:18:58.528Z,5.04
2023-04-11T22:21:26.604Z,4.94
2023-04-11T22:23:57.162Z,4.94
2023-04-11T22:26:29.555Z,5.00
2023-04-11T22:29:01.372Z,5.02
2023-04-11T22:31:35.098Z,5.01
2023-04-11T22:34:04.777Z,5.03
2023-04-11T22:36:41.321Z,5.03
2023-04-11T22:39:08.552Z,4.99
2023-04-11T22:41:38.591Z,5.10
2023-04-11T22:44:06.625Z,5.06
2023-04-11T22:46:38.606Z,5.00
2023-04-11T22:49:06.556Z,4.94
2023-04-11T22:51:33.144Z,5.07
2023-04-11T22:54:01.102Z,4.98
2023-04-11T22:56:27.722Z,4.90
2023-04-11T22:58:54.917Z,4.80
2023-04-11T23:01:22.454Z,4.84
2023-04-11T23:03:49.351Z,4.80
2023-04-11T23:06:16.585Z,4.77
2023-04-11T23:08:43.269Z,4.63
2023-04-11T23:11:10.012Z,4.60
2023-04-11T23:13:37.643Z,4.58
2023-04-11T23:16:04.574Z,4.55
2023-04-11T23:18:31.402Z,4.46
2023-04-11T23:20:58.228Z,4.54
2023-04-11T23:23:25.068Z,4.68
2023-04-11T23:25:52.341Z,4.56
2023-04-11T23:28:19.078Z,4.53
2023-04-11T23:30:45.938Z,4.44
2023-04-11T23:33:13.340Z,4.18
2023-04-11T23:35:40.052Z,4.24
2023-04-11T23:38:06.914Z,4.17
2023-04-11T23:40:33.685Z,4.17
2023-04-11T23:43:00.609Z,4.24
2023-04-11T23:45:27.310Z,4.12
2023-04-11T23:47:54.077Z,4.24
2023-04-11T23:50:21.449Z,4.17
2023-04-11T23:52:48.248Z,4.18
2023-04-11T23:55:15.561Z,4.15
2023-04-11T23:57:42.426Z,3.99
